West Point, Ohio
Current Conditions -  °F | °C
As of 3:47 PM on Thursday 20 Nov 2014 (Local Time) from KBVI Reporting Station
Overcast Overcast  
Wind Chill: 14°   Ceiling: 4000
Heat Index: 27°   Visibility: 10mi
Dew Point: 10°   Wind: 16mph
Humidity: 51%   Direction: 250°WSW
Pressure: 29.99"   Gusts: 24mph
Location:  40.71°N, 80.7°W
Report Text: KBVI 202047Z 25014G21KT 10SM BKN040 OVC046 M03/M12 A2999
Loading
Personal Weather Stations






























Interactive Weather Map New forecast layout! Learn more

10-Day Weather Forecast

Advertisements
Track Severe Weather on mobile